Time;durP1;ratioP1;P1;durP2;ratioP2;P2;SDS_P1;SDS_P2;PMS_P1;PMS_P2;Temp;Humidity;BMP_temperature;BMP_pressure;BME280_temperature;BME280_humidity;BME280_pressure;Samples;Min_cycle;Max_cycle;Signal;HPM_P1;HPM_P2
2021/08/30 00:00:41;;;;;;;16.10;12.23;;;12.70;99.90;;;;;;5054160;28;20497;-80
2021/08/30 00:03:07;;;;;;;13.48;11.38;;;12.70;99.90;;;;;;5053944;28;20033;-80
2021/08/30 00:05:33;;;;;;;14.52;10.57;;;12.70;99.90;;;;;;5035476;28;20128;-80
2021/08/30 00:07:59;;;;;;;13.95;11.48;;;12.70;99.90;;;;;;5051968;28;20033;-80
2021/08/30 00:10:25;;;;;;;14.43;10.93;;;12.70;99.90;;;;;;5052049;28;20146;-80
2021/08/30 00:12:51;;;;;;;15.07;10.82;;;12.70;99.90;;;;;;5052042;28;20041;-80
2021/08/30 00:15:17;;;;;;;16.98;12.10;;;12.70;99.90;;;;;;5051976;28;20036;-80
2021/08/30 00:17:45;;;;;;;23.92;13.45;;;12.70;99.90;;;;;;5034181;28;20536;-80
2021/08/30 00:20:14;;;;;;;19.52;13.52;;;12.70;99.90;;;;;;5056278;28;20085;-80
2021/08/30 00:22:40;;;;;;;23.45;14.70;;;12.70;99.90;;;;;;5060910;28;20045;-79
2021/08/30 00:25:07;;;;;;;35.35;24.95;;;12.70;99.90;;;;;;5051736;28;20128;-80
2021/08/30 00:27:32;;;;;;;31.52;20.95;;;12.70;99.90;;;;;;5033798;28;20036;-80
2021/08/30 00:29:58;;;;;;;30.45;20.83;;;12.70;99.90;;;;;;5033935;28;20048;-80
2021/08/30 00:32:23;;;;;;;24.88;16.15;;;12.80;99.90;;;;;;5034006;28;20048;-80
2021/08/30 00:34:49;;;;;;;26.38;17.58;;;12.70;99.90;;;;;;5033748;28;20065;-80
2021/08/30 00:37:15;;;;;;;22.38;16.60;;;12.80;99.90;;;;;;5033764;28;20029;-80
2021/08/30 00:39:41;;;;;;;24.02;16.02;;;12.70;99.90;;;;;;5033678;28;20025;-80
2021/08/30 00:42:07;;;;;;;24.98;16.65;;;12.70;99.90;;;;;;5046542;28;20032;-80
2021/08/30 00:44:33;;;;;;;25.08;16.67;;;12.60;99.90;;;;;;5053438;28;20064;-80
2021/08/30 00:46:59;;;;;;;23.40;16.63;;;12.60;99.90;;;;;;5071478;28;20033;-80
2021/08/30 00:49:25;;;;;;;24.52;16.13;;;12.70;99.90;;;;;;5071035;28;20085;-80
2021/08/30 00:51:51;;;;;;;24.95;15.75;;;12.60;99.90;;;;;;5059574;28;20072;-80
2021/08/30 00:54:18;;;;;;;20.90;15.05;;;12.70;99.90;;;;;;5033493;28;20435;-80
2021/08/30 00:56:45;;;;;;;30.63;20.45;;;12.70;99.90;;;;;;5033216;28;20070;-80
2021/08/30 00:59:11;;;;;;;33.15;21.20;;;12.70;99.90;;;;;;5033553;28;20030;-80
2021/08/30 01:01:37;;;;;;;36.65;22.27;;;12.70;99.90;;;;;;5051122;28;20431;-80
2021/08/30 01:04:06;;;;;;;38.28;22.67;;;12.70;99.90;;;;;;5051184;28;20040;-80
2021/08/30 01:06:42;;;;;;;41.35;21.67;;;12.70;99.90;;;;;;5033134;28;20033;-80
2021/08/30 01:09:32;;;;;;;33.17;21.63;;;12.70;99.90;;;;;;5051269;28;20036;-80
2021/08/30 01:12:11;;;;;;;30.50;20.50;;;12.70;99.90;;;;;;5051206;28;20029;-80
2021/08/30 01:14:46;;;;;;;31.67;22.77;;;12.70;99.90;;;;;;5050453;28;20021;-80
2021/08/30 01:17:13;;;;;;;29.02;20.17;;;12.70;99.90;;;;;;5033094;28;20029;-80
2021/08/30 01:19:52;;;;;;;34.97;23.40;;;12.70;99.90;;;;;;5050136;28;20112;-80
2021/08/30 01:22:20;;;;;;;27.02;19.08;;;12.70;99.90;;;;;;5065490;28;20537;-80
2021/08/30 01:24:48;;;;;;;30.90;20.55;;;12.70;99.90;;;;;;5052833;28;20041;-80
2021/08/30 01:27:15;;;;;;;28.88;19.95;;;12.70;99.90;;;;;;5070818;28;20493;-80
2021/08/30 01:29:43;;;;;;;30.60;20.20;;;12.70;99.90;;;;;;5052841;28;20031;-80
2021/08/30 01:32:29;;;;;;;28.33;18.77;;;12.70;99.90;;;;;;5070666;28;20036;-80
2021/08/30 01:34:58;;;;;;;32.42;19.63;;;12.80;99.90;;;;;;5070121;28;20123;-80
2021/08/30 01:37:25;;;;;;;25.08;17.45;;;12.70;99.90;;;;;;5052806;28;20128;-80
2021/08/30 01:39:52;;;;;;;32.88;20.75;;;12.70;99.90;;;;;;5059363;28;20451;-80
2021/08/30 01:42:18;;;;;;;27.58;19.02;;;12.60;99.90;;;;;;5050619;28;20111;-80
2021/08/30 01:44:45;;;;;;;24.15;16.90;;;12.60;99.90;;;;;;5050337;28;20037;-80
2021/08/30 01:47:12;;;;;;;25.02;16.35;;;12.60;99.90;;;;;;5050492;28;20036;-81
2021/08/30 01:49:37;;;;;;;27.52;18.13;;;12.60;99.90;;;;;;5033743;28;20037;-80
2021/08/30 01:52:04;;;;;;;29.02;18.17;;;12.60;99.90;;;;;;5050762;28;20479;-80
2021/08/30 01:54:30;;;;;;;28.17;19.17;;;12.60;99.90;;;;;;5032512;28;20252;-80
2021/08/30 01:56:57;;;;;;;40.53;21.92;;;12.60;99.90;;;;;;5032579;28;20114;-80
2021/08/30 02:02:09;;;;;;;33.53;21.42;;;12.60;99.90;;;;;;5050386;28;20174;-80
2021/08/30 02:04:38;;;;;;;42.92;21.35;;;12.70;99.90;;;;;;5040353;28;20047;-80
2021/08/30 02:07:05;;;;;;;33.72;22.15;;;12.70;99.90;;;;;;5036952;28;20036;-80
2021/08/30 02:09:32;;;;;;;29.05;20.00;;;12.80;99.90;;;;;;5048356;28;20052;-80
2021/08/30 02:11:57;;;;;;;31.38;20.77;;;12.70;99.90;;;;;;5051699;28;20036;-80
2021/08/30 02:14:23;;;;;;;33.40;20.42;;;12.80;99.90;;;;;;5050203;28;20037;-80
2021/08/30 02:16:50;;;;;;;32.05;21.48;;;12.80;99.90;;;;;;5032129;27;20435;-80
2021/08/30 02:19:38;;;;;;;29.20;19.73;;;12.80;99.90;;;;;;5037539;28;20064;-80
2021/08/30 02:22:10;;;;;;;35.53;20.98;;;12.80;99.90;;;;;;5069689;28;20032;-80
2021/08/30 02:24:47;;;;;;;34.43;22.20;;;12.80;99.90;;;;;;5052006;28;20127;-80
2021/08/30 02:27:39;;;;;;;34.45;24.15;;;12.80;99.90;;;;;;5051830;28;20658;-80
2021/08/30 02:30:08;;;;;;;36.38;22.38;;;12.80;99.90;;;;;;5070062;28;20058;-80
2021/08/30 02:32:36;;;;;;;36.58;22.92;;;12.80;99.90;;;;;;5051916;28;20453;-80
2021/08/30 02:35:05;;;;;;;30.40;22.92;;;12.80;99.90;;;;;;5049340;28;20402;-80
2021/08/30 02:37:35;;;;;;;33.47;23.95;;;12.80;99.90;;;;;;5049591;28;20066;-80
2021/08/30 02:40:02;;;;;;;36.45;25.50;;;12.80;99.90;;;;;;5050161;28;20078;-80
2021/08/30 02:42:30;;;;;;;46.85;24.15;;;12.80;99.90;;;;;;5049830;28;20029;-80
2021/08/30 02:44:57;;;;;;;32.10;23.60;;;12.70;99.90;;;;;;5049675;28;20041;-80
2021/08/30 02:47:24;;;;;;;36.10;24.95;;;12.80;99.90;;;;;;5031916;28;20444;-80
2021/08/30 02:49:51;;;;;;;32.60;22.60;;;12.80;99.90;;;;;;5059216;28;20040;-80
2021/08/30 02:52:19;;;;;;;34.58;23.73;;;12.70;99.90;;;;;;5069565;28;20085;-80
2021/08/30 02:54:47;;;;;;;29.67;21.92;;;12.70;99.90;;;;;;5069581;28;20401;-80
2021/08/30 02:57:13;;;;;;;33.95;23.10;;;12.70;99.90;;;;;;5051549;28;20029;-80
2021/08/30 02:59:40;;;;;;;33.10;22.27;;;12.70;99.90;;;;;;5050698;28;20041;-80
2021/08/30 03:02:08;;;;;;;31.20;21.83;;;12.70;99.90;;;;;;5051468;28;20136;-80
2021/08/30 03:04:35;;;;;;;32.10;22.35;;;12.70;99.90;;;;;;5051485;28;20044;-80
2021/08/30 03:07:03;;;;;;;31.83;21.65;;;12.70;99.90;;;;;;5051022;28;20176;-80
2021/08/30 03:09:29;;;;;;;40.40;27.73;;;12.70;99.90;;;;;;5035039;28;20037;-80
2021/08/30 03:11:56;;;;;;;33.70;23.95;;;12.60;99.90;;;;;;5069289;28;20029;-80
2021/08/30 03:14:25;;;;;;;29.25;22.05;;;12.60;99.90;;;;;;5069299;28;20046;-80
2021/08/30 03:16:54;;;;;;;31.40;22.90;;;12.60;99.90;;;;;;5049674;27;20070;-81
2021/08/30 03:19:21;;;;;;;30.73;22.15;;;12.60;99.90;;;;;;5031472;28;20040;-80
2021/08/30 03:21:49;;;;;;;28.42;20.75;;;12.50;99.90;;;;;;5031277;28;20490;-81
2021/08/30 03:24:17;;;;;;;26.42;21.60;;;12.50;99.90;;;;;;5050020;28;20033;-80
2021/08/30 03:26:44;;;;;;;33.60;23.17;;;12.40;99.90;;;;;;5067757;28;20512;-81
2021/08/30 03:29:11;;;;;;;33.65;21.98;;;12.40;99.90;;;;;;5067899;27;20520;-80
2021/08/30 03:31:38;;;;;;;32.65;22.73;;;12.40;99.90;;;;;;5067740;27;20029;-80
2021/08/30 03:34:05;;;;;;;31.85;23.20;;;12.40;99.90;;;;;;5067857;28;20029;-80
2021/08/30 03:36:31;;;;;;;38.70;23.75;;;12.40;99.90;;;;;;5067672;27;20125;-81
2021/08/30 03:38:58;;;;;;;36.42;25.25;;;12.40;99.90;;;;;;5058366;27;20040;-81
2021/08/30 03:41:26;;;;;;;32.20;24.30;;;12.40;99.90;;;;;;5061249;28;20060;-81
2021/08/30 03:43:53;;;;;;;32.65;23.55;;;12.40;99.90;;;;;;5063561;28;20029;-81
2021/08/30 03:46:21;;;;;;;32.08;22.92;;;12.40;99.90;;;;;;5054264;28;20075;-81
2021/08/30 03:48:47;;;;;;;31.58;22.25;;;12.40;99.90;;;;;;5037240;28;20049;-81
2021/08/30 03:51:14;;;;;;;34.63;23.88;;;12.40;99.90;;;;;;5054051;28;20040;-81
2021/08/30 03:53:41;;;;;;;30.92;21.63;;;12.40;99.90;;;;;;5043221;28;20516;-81
2021/08/30 03:56:08;;;;;;;31.70;23.23;;;12.50;99.90;;;;;;5048496;28;20040;-81
2021/08/30 03:58:36;;;;;;;33.30;22.05;;;12.40;99.90;;;;;;5063792;28;20489;-81
2021/08/30 04:01:04;;;;;;;30.63;20.92;;;12.30;99.90;;;;;;5059602;28;20028;-81
2021/08/30 04:03:34;;;;;;;28.13;21.50;;;12.30;99.90;;;;;;5056323;28;20048;-81
2021/08/30 04:06:01;;;;;;;30.27;21.45;;;12.30;99.90;;;;;;5047943;28;20454;-81
2021/08/30 04:08:29;;;;;;;23.75;18.92;;;12.40;99.90;;;;;;5044664;28;20021;-80
2021/08/30 04:10:55;;;;;;;21.90;17.25;;;12.40;99.90;;;;;;5060090;28;20504;-81
2021/08/30 04:13:21;;;;;;;22.60;17.13;;;12.40;99.90;;;;;;5040791;28;20033;-81
2021/08/30 04:15:46;;;;;;;23.25;16.92;;;12.40;99.90;;;;;;5046982;28;20133;-81
2021/08/30 04:18:12;;;;;;;20.10;16.23;;;12.40;99.90;;;;;;5046780;28;20029;-81
2021/08/30 04:20:37;;;;;;;19.70;15.13;;;12.40;99.90;;;;;;5045057;28;20034;-80
2021/08/30 04:23:03;;;;;;;22.63;17.33;;;12.30;99.90;;;;;;5051720;28;20025;-81
2021/08/30 04:25:29;;;;;;;21.10;17.10;;;12.40;99.90;;;;;;5047253;28;20440;-81
2021/08/30 04:27:54;;;;;;;22.58;16.30;;;12.40;99.90;;;;;;5042911;28;20032;-81
2021/08/30 04:30:20;;;;;;;23.60;17.27;;;12.40;99.90;;;;;;5061682;28;20037;-81
2021/08/30 04:32:45;;;;;;;25.08;17.13;;;12.40;99.90;;;;;;5065021;28;20501;-81
2021/08/30 04:35:11;;;;;;;21.83;17.20;;;12.40;99.90;;;;;;5060984;28;20094;-81
2021/08/30 04:37:37;;;;;;;23.30;16.50;;;12.40;99.90;;;;;;5049826;28;20043;-81
2021/08/30 04:40:05;;;;;;;21.45;16.65;;;12.40;99.90;;;;;;5042928;28;20048;-81
2021/08/30 04:42:31;;;;;;;24.38;18.80;;;12.50;99.90;;;;;;5049670;28;20028;-81
2021/08/30 04:44:57;;;;;;;25.17;17.88;;;12.40;99.90;;;;;;5045563;28;20041;-81
2021/08/30 04:47:23;;;;;;;23.85;18.30;;;12.50;99.90;;;;;;5059453;28;20024;-81
2021/08/30 04:49:48;;;;;;;22.27;16.25;;;12.50;99.90;;;;;;5062345;28;20512;-80
2021/08/30 04:52:14;;;;;;;20.95;16.05;;;12.50;99.90;;;;;;5060763;28;20040;-81
2021/08/30 04:54:40;;;;;;;23.27;15.43;;;12.50;99.90;;;;;;5042641;28;20468;-81
2021/08/30 04:57:05;;;;;;;18.55;14.82;;;12.50;99.90;;;;;;5048581;28;20033;-81
2021/08/30 04:59:31;;;;;;;17.95;14.50;;;12.50;99.90;;;;;;5051997;28;20033;-81
2021/08/30 05:01:57;;;;;;;16.58;13.68;;;12.50;99.90;;;;;;5066733;28;20043;-81
2021/08/30 05:04:22;;;;;;;15.95;13.13;;;12.60;99.90;;;;;;5069817;28;20037;-81
2021/08/30 05:06:48;;;;;;;15.98;13.35;;;12.60;99.90;;;;;;5053190;28;20032;-81
2021/08/30 05:09:14;;;;;;;16.15;13.65;;;12.60;99.90;;;;;;5071160;28;20056;-81
2021/08/30 05:11:39;;;;;;;12.52;11.18;;;12.60;99.90;;;;;;5070992;28;20045;-81
2021/08/30 05:14:05;;;;;;;15.25;12.48;;;12.60;99.90;;;;;;5046314;28;20124;-80
2021/08/30 05:16:31;;;;;;;13.55;11.65;;;12.60;99.90;;;;;;5054191;28;20090;-80
2021/08/30 05:18:57;;;;;;;18.52;13.18;;;12.70;99.90;;;;;;5062506;28;20513;-81
2021/08/30 05:21:22;;;;;;;15.88;13.30;;;12.70;99.90;;;;;;5052918;28;20064;-81
2021/08/30 05:23:48;;;;;;;15.68;14.02;;;12.70;99.90;;;;;;5043013;28;20486;-82
2021/08/30 05:26:14;;;;;;;17.15;13.43;;;12.70;99.90;;;;;;5067990;28;20123;-81
2021/08/30 05:28:40;;;;;;;18.27;13.93;;;12.70;99.90;;;;;;5062604;28;20375;-80
2021/08/30 05:31:05;;;;;;;19.88;14.77;;;12.70;99.90;;;;;;5070636;28;20044;-81
2021/08/30 05:33:31;;;;;;;16.95;14.95;;;12.80;99.90;;;;;;5066486;28;20037;-80
2021/08/30 05:35:57;;;;;;;17.15;14.77;;;12.80;99.90;;;;;;5049286;28;20043;-81
2021/08/30 05:38:22;;;;;;;20.73;15.02;;;12.80;99.90;;;;;;5045723;28;20029;-80
2021/08/30 05:40:48;;;;;;;20.48;16.55;;;12.80;99.90;;;;;;5032550;28;20037;-81
2021/08/30 05:43:14;;;;;;;21.63;16.60;;;12.80;99.90;;;;;;5050027;28;20037;-81
2021/08/30 05:45:39;;;;;;;25.73;17.45;;;12.80;99.90;;;;;;5032404;28;20060;-81
2021/08/30 05:48:05;;;;;;;21.50;17.30;;;12.80;99.90;;;;;;5050931;28;20121;-81
2021/08/30 05:50:31;;;;;;;21.50;16.90;;;12.80;99.90;;;;;;5031217;28;20037;-81
2021/08/30 05:52:57;;;;;;;21.83;17.13;;;12.80;99.90;;;;;;5061195;28;20069;-81
2021/08/30 05:55:22;;;;;;;24.92;17.38;;;12.80;99.90;;;;;;5044823;27;20037;-81
2021/08/30 05:57:49;;;;;;;21.42;16.65;;;12.80;99.90;;;;;;5050736;28;20436;-81
2021/08/30 06:00:15;;;;;;;21.52;17.38;;;12.80;99.90;;;;;;5062020;28;20040;-81
2021/08/30 06:02:40;;;;;;;20.02;16.67;;;12.80;99.90;;;;;;5032122;28;20343;-81
2021/08/30 06:05:06;;;;;;;18.48;15.10;;;12.70;99.90;;;;;;5032439;28;20045;-82
2021/08/30 06:07:32;;;;;;;17.40;14.10;;;12.70;99.90;;;;;;5045125;28;20063;-81
2021/08/30 06:09:58;;;;;;;18.38;13.88;;;12.60;99.90;;;;;;5047093;28;20112;-81
2021/08/30 06:12:24;;;;;;;18.83;14.90;;;12.70;99.90;;;;;;5045271;27;20040;-81
2021/08/30 06:14:49;;;;;;;20.17;15.10;;;12.60;99.90;;;;;;5042918;28;20979;-81
2021/08/30 06:17:15;;;;;;;17.35;15.25;;;12.60;99.90;;;;;;5060045;28;20033;-81
2021/08/30 06:19:42;;;;;;;21.40;16.90;;;12.70;99.90;;;;;;5021804;27;20037;-81
2021/08/30 06:22:09;;;;;;;18.98;14.95;;;12.70;99.90;;;;;;5051541;28;20051;-80
2021/08/30 06:24:39;;;;;;;21.27;16.48;;;12.70;99.90;;;;;;5026772;27;20044;-81
2021/08/30 06:27:05;;;;;;;19.08;15.38;;;12.70;99.90;;;;;;5026720;28;20044;-81
2021/08/30 06:29:31;;;;;;;15.50;13.27;;;12.70;99.90;;;;;;5037239;27;20040;-81
2021/08/30 06:31:57;;;;;;;20.65;15.70;;;12.70;99.90;;;;;;5038721;28;20478;-82
2021/08/30 06:34:24;;;;;;;14.30;12.80;;;12.60;99.90;;;;;;5019576;28;20045;-78
2021/08/30 06:36:50;;;;;;;15.00;12.73;;;12.60;99.90;;;;;;5011537;28;20457;-79
2021/08/30 06:39:15;;;;;;;14.20;11.45;;;12.60;99.90;;;;;;5018705;28;20041;-79
2021/08/30 06:41:41;;;;;;;13.23;10.93;;;12.60;99.90;;;;;;5028603;28;20033;-79
2021/08/30 06:44:07;;;;;;;12.70;10.30;;;12.60;99.90;;;;;;5032380;28;20041;-79
2021/08/30 06:46:32;;;;;;;11.90;10.60;;;12.60;99.90;;;;;;5027368;28;20039;-79
2021/08/30 06:48:58;;;;;;;12.77;10.80;;;12.50;99.90;;;;;;5042106;28;20136;-78
2021/08/30 06:51:24;;;;;;;12.30;10.48;;;12.60;99.90;;;;;;5042729;27;20435;-80
2021/08/30 06:53:49;;;;;;;13.18;11.80;;;12.60;99.90;;;;;;5040125;28;20109;-80
2021/08/30 06:56:15;;;;;;;12.02;10.27;;;12.60;99.90;;;;;;5027168;28;20029;-80
2021/08/30 06:58:41;;;;;;;14.48;12.85;;;12.60;99.90;;;;;;5044676;28;20074;-80
2021/08/30 07:01:06;;;;;;;19.02;17.02;;;12.70;99.90;;;;;;5046229;27;20104;-79
2021/08/30 07:03:32;;;;;;;17.65;15.80;;;12.70;99.90;;;;;;5026940;28;20617;-79
2021/08/30 07:05:57;;;;;;;17.05;14.88;;;12.70;99.90;;;;;;5025519;28;20041;-79
2021/08/30 07:08:23;;;;;;;13.63;10.95;;;12.80;99.90;;;;;;5045792;28;20439;-79
2021/08/30 07:10:49;;;;;;;15.23;13.45;;;12.80;99.90;;;;;;5045681;28;20037;-80
2021/08/30 07:13:15;;;;;;;18.52;14.23;;;12.70;99.90;;;;;;5046719;28;20028;-80
2021/08/30 07:15:40;;;;;;;16.77;13.95;;;12.80;99.90;;;;;;5028789;28;20029;-80
2021/08/30 07:18:06;;;;;;;15.88;13.38;;;12.90;99.90;;;;;;5039287;28;21518;-80
2021/08/30 07:20:32;;;;;;;16.50;14.52;;;12.90;99.90;;;;;;5048818;28;20124;-80
2021/08/30 07:22:57;;;;;;;16.23;13.75;;;13.00;99.90;;;;;;5048586;28;20486;-80
2021/08/30 07:25:23;;;;;;;16.73;13.20;;;13.00;99.90;;;;;;5068156;27;20398;-79
2021/08/30 07:27:49;;;;;;;15.60;13.05;;;13.00;99.90;;;;;;5048935;28;20033;-80
2021/08/30 07:30:15;;;;;;;17.55;14.77;;;13.00;99.90;;;;;;5059558;27;20040;-79
2021/08/30 07:32:41;;;;;;;16.73;14.52;;;12.90;99.90;;;;;;5068978;28;20029;-80
2021/08/30 07:35:07;;;;;;;15.82;13.98;;;12.90;99.90;;;;;;5068140;28;20044;-80
2021/08/30 07:37:33;;;;;;;15.85;14.00;;;12.90;99.90;;;;;;5069399;28;20564;-79
2021/08/30 07:39:58;;;;;;;17.52;15.05;;;12.90;99.90;;;;;;5060411;28;20066;-79
2021/08/30 07:42:24;;;;;;;19.77;16.05;;;13.00;99.90;;;;;;5049617;28;20037;-80
2021/08/30 07:44:51;;;;;;;23.35;16.20;;;12.90;99.90;;;;;;5036918;28;20047;-80
2021/08/30 07:47:17;;;;;;;18.17;15.68;;;13.00;99.90;;;;;;5064965;28;20112;-79
2021/08/30 07:49:42;;;;;;;22.27;16.92;;;13.10;99.90;;;;;;5050178;28;20104;-79
2021/08/30 07:52:08;;;;;;;22.92;17.88;;;13.10;99.90;;;;;;5048505;28;20025;-79
2021/08/30 07:54:34;;;;;;;20.73;17.30;;;13.10;99.90;;;;;;5063255;28;20081;-79
2021/08/30 07:56:59;;;;;;;22.48;17.90;;;13.10;99.90;;;;;;5067868;28;20047;-79
2021/08/30 07:59:25;;;;;;;21.23;17.00;;;13.20;99.90;;;;;;5068469;28;20443;-79
2021/08/30 08:01:50;;;;;;;21.33;17.17;;;13.20;99.90;;;;;;5049322;28;20048;-79
2021/08/30 08:04:16;;;;;;;22.52;18.17;;;13.20;99.90;;;;;;5067821;28;20486;-79
2021/08/30 08:06:42;;;;;;;23.35;17.70;;;13.20;99.90;;;;;;5046882;28;20029;-78
2021/08/30 08:09:08;;;;;;;20.08;16.63;;;13.20;99.90;;;;;;5041209;28;20033;-78
2021/08/30 08:11:33;;;;;;;21.02;16.48;;;13.20;99.90;;;;;;5031416;28;20070;-79
2021/08/30 08:13:59;;;;;;;22.25;18.10;;;13.20;99.90;;;;;;5063509;27;20538;-78
2021/08/30 08:16:25;;;;;;;22.00;17.73;;;13.20;99.90;;;;;;5037825;28;20059;-78
2021/08/30 08:18:52;;;;;;;23.20;17.42;;;13.10;99.90;;;;;;4991894;28;1139061;-79
2021/08/30 08:21:22;;;;;;;22.98;17.88;;;13.10;99.90;;;;;;5066304;28;20033;-78
2021/08/30 08:23:48;;;;;;;23.73;18.38;;;13.10;99.90;;;;;;5050647;28;20040;-78
2021/08/30 08:26:14;;;;;;;21.52;17.60;;;13.10;99.90;;;;;;5037049;28;20049;-79
2021/08/30 08:28:40;;;;;;;22.58;17.63;;;13.00;99.90;;;;;;5065132;28;20028;-79
2021/08/30 08:31:05;;;;;;;21.65;17.33;;;13.00;99.90;;;;;;5075842;28;20032;-78
2021/08/30 08:33:31;;;;;;;21.42;17.10;;;13.00;99.90;;;;;;5062113;28;20021;-78
2021/08/30 08:35:57;;;;;;;19.70;15.60;;;13.00;99.90;;;;;;5080173;28;20040;-79
2021/08/30 08:38:23;;;;;;;23.02;16.55;;;13.00;99.90;;;;;;5071551;28;20028;-79
2021/08/30 08:40:51;;;;;;;21.02;16.67;;;13.00;99.90;;;;;;5055423;28;20044;-79
2021/08/30 08:43:19;;;;;;;22.00;18.35;;;13.00;99.90;;;;;;5067709;28;20506;-79
2021/08/30 08:45:46;;;;;;;24.30;18.60;;;13.00;99.90;;;;;;5041056;28;20055;-79
2021/08/30 08:48:12;;;;;;;21.25;17.52;;;13.10;99.90;;;;;;5068563;28;20036;-78
2021/08/30 08:50:38;;;;;;;23.75;17.52;;;13.00;99.90;;;;;;5063499;28;20041;-79
2021/08/30 08:53:06;;;;;;;22.10;16.88;;;13.10;99.90;;;;;;5067729;28;20036;-79
2021/08/30 08:55:34;;;;;;;20.00;15.60;;;13.10;99.90;;;;;;5063632;28;20025;-79
2021/08/30 08:58:11;;;;;;;22.33;16.38;;;13.20;99.90;;;;;;5050922;28;20021;-79
2021/08/30 09:00:39;;;;;;;20.73;16.63;;;13.20;99.90;;;;;;5053987;28;20057;-79
2021/08/30 09:03:13;;;;;;;20.38;16.73;;;13.20;99.90;;;;;;5048420;28;20032;-79
2021/08/30 09:05:39;;;;;;;25.80;20.02;;;13.20;99.90;;;;;;5058763;28;20045;-77
2021/08/30 09:08:05;;;;;;;27.08;19.50;;;13.20;99.90;;;;;;5068349;28;20120;-79
2021/08/30 09:10:37;;;;;;;28.00;20.17;;;13.10;99.90;;;;;;5056585;28;20031;-79
2021/08/30 09:13:07;;;;;;;25.90;20.05;;;13.20;99.90;;;;;;5065947;27;20128;-79
2021/08/30 09:15:40;;;;;;;26.10;19.42;;;13.20;99.90;;;;;;5045946;28;20036;-79
2021/08/30 09:18:10;;;;;;;24.27;19.20;;;13.20;99.90;;;;;;5049395;28;20032;-79
2021/08/30 09:20:37;;;;;;;20.88;16.83;;;13.20;99.90;;;;;;5045832;28;20109;-79
2021/08/30 09:23:15;;;;;;;19.88;16.38;;;13.10;99.90;;;;;;5049276;27;20043;-81
2021/08/30 09:25:42;;;;;;;18.13;15.70;;;13.10;99.90;;;;;;5045137;28;20108;-79
2021/08/30 09:28:07;;;;;;;21.60;17.35;;;13.10;99.90;;;;;;5064635;28;20044;-79
2021/08/30 09:30:33;;;;;;;22.40;15.73;;;13.10;99.90;;;;;;5042597;28;20060;-79
2021/08/30 09:33:00;;;;;;;19.85;16.35;;;13.10;99.90;;;;;;5067384;28;20032;-79
2021/08/30 09:35:26;;;;;;;19.48;16.42;;;13.10;99.90;;;;;;5048188;28;20029;-79
2021/08/30 09:37:53;;;;;;;21.20;17.05;;;13.10;99.90;;;;;;5049263;28;20040;-79
2021/08/30 09:40:23;;;;;;;19.98;14.30;;;13.10;99.90;;;;;;5066525;28;20115;-79
2021/08/30 09:42:57;;;;;;;18.38;14.45;;;13.10;99.90;;;;;;5065364;28;20434;-79
2021/08/30 09:45:28;;;;;;;20.63;15.68;;;13.10;99.90;;;;;;5042710;28;20544;-79
2021/08/30 09:47:54;;;;;;;19.60;16.42;;;13.20;99.90;;;;;;5067448;28;20205;-79
2021/08/30 09:50:30;;;;;;;18.92;14.30;;;13.20;99.90;;;;;;5058717;28;20037;-79
2021/08/30 09:52:58;;;;;;;18.45;14.32;;;13.20;99.90;;;;;;5047610;28;20071;-79
2021/08/30 09:55:25;;;;;;;17.75;14.32;;;13.30;99.90;;;;;;5056781;28;20040;-79
2021/08/30 09:57:52;;;;;;;18.08;14.73;;;13.20;99.90;;;;;;5049701;28;20047;-79
2021/08/30 10:00:19;;;;;;;13.75;12.07;;;13.20;99.90;;;;;;5058133;28;20037;-79
2021/08/30 10:03:08;;;;;;;15.88;13.23;;;13.00;99.90;;;;;;5068356;28;20037;-79
2021/08/30 10:05:35;;;;;;;13.98;11.05;;;13.10;99.90;;;;;;5053048;28;20543;-80
2021/08/30 10:08:01;;;;;;;15.85;11.63;;;13.00;99.90;;;;;;5034861;28;20482;-79
2021/08/30 10:10:27;;;;;;;14.45;11.80;;;13.10;99.90;;;;;;5057251;28;20068;-79
2021/08/30 10:25:59;;;;;;;15.18;11.82;;;13.00;99.90;;;;;;5125382;27;20414;-77
2021/08/30 10:28:45;;;;;;;13.43;11.25;;;13.20;99.90;;;;;;5096835;28;20029;-77
2021/08/30 10:31:19;;;;;;;12.68;10.32;;;13.30;99.90;;;;;;5098149;28;20089;-77
2021/08/30 10:33:48;;;;;;;14.32;12.07;;;13.20;99.90;;;;;;5102769;27;20555;-77
2021/08/30 10:36:17;;;;;;;18.30;11.98;;;13.30;99.90;;;;;;5107792;28;20085;-78
2021/08/30 10:38:54;;;;;;;18.20;11.75;;;13.20;99.90;;;;;;5101450;27;20028;-78
2021/08/30 10:41:20;;;;;;;17.13;13.20;;;13.30;99.90;;;;;;5103893;28;20020;-78
2021/08/30 10:43:46;;;;;;;17.67;10.90;;;13.40;99.90;;;;;;5097654;28;20029;-78
2021/08/30 10:46:15;;;;;;;11.27;10.07;;;13.30;99.90;;;;;;5096723;28;20030;-77
2021/08/30 10:48:48;;;;;;;11.57;8.88;;;13.30;99.90;;;;;;5092917;27;20024;-77
2021/08/30 10:51:27;;;;;;;12.10;9.60;;;13.30;99.90;;;;;;5107449;28;20024;-77
2021/08/30 10:54:14;;;;;;;11.27;8.60;;;13.40;99.90;;;;;;5099127;28;20018;-78
2021/08/30 10:56:41;;;;;;;12.77;9.80;;;13.30;99.90;;;;;;5104680;28;20060;-76
2021/08/30 10:59:07;;;;;;;12.40;10.38;;;13.40;99.90;;;;;;5122407;27;20032;-76
2021/08/30 11:01:35;;;;;;;13.93;11.10;;;13.40;99.90;;;;;;5107204;28;20518;-76
2021/08/30 11:04:01;;;;;;;15.05;12.25;;;13.40;99.90;;;;;;5100033;28;20362;-75
2021/08/30 11:06:26;;;;;;;17.75;12.82;;;13.50;99.90;;;;;;5094939;28;20031;-76
2021/08/30 11:08:53;;;;;;;13.60;12.18;;;13.50;99.90;;;;;;5087725;28;20020;-76
2021/08/30 11:11:22;;;;;;;13.18;11.00;;;13.50;99.90;;;;;;5090297;28;20429;-78
2021/08/30 11:14:08;;;;;;;13.60;11.30;;;13.50;99.90;;;;;;5087116;28;20024;-78
2021/08/30 11:16:36;;;;;;;11.60;10.27;;;13.40;99.90;;;;;;5087659;28;20392;-76
2021/08/30 11:19:04;;;;;;;15.35;13.15;;;13.40;99.90;;;;;;5085442;28;20020;-76
2021/08/30 11:21:33;;;;;;;12.45;11.15;;;13.30;99.90;;;;;;5102655;28;20051;-76
2021/08/30 11:23:59;;;;;;;12.93;10.93;;;13.40;99.90;;;;;;5106997;27;20085;-76
2021/08/30 11:26:25;;;;;;;13.88;12.38;;;13.40;99.90;;;;;;5096121;28;20059;-76
2021/08/30 11:28:58;;;;;;;19.50;14.10;;;13.40;99.90;;;;;;5093576;28;20056;-76
2021/08/30 11:31:27;;;;;;;20.08;15.15;;;13.40;99.90;;;;;;5094200;28;20538;-76
2021/08/30 11:33:52;;;;;;;25.10;16.45;;;13.50;99.90;;;;;;5085693;28;20116;-76
2021/08/30 11:36:18;;;;;;;20.65;15.27;;;13.50;99.90;;;;;;5088708;28;20111;-77
2021/08/30 11:38:55;;;;;;;18.35;13.88;;;13.50;99.90;;;;;;5079113;28;20099;-76
2021/08/30 11:41:22;;;;;;;19.15;14.40;;;13.60;99.90;;;;;;5093995;28;20032;-76
2021/08/30 11:43:49;;;;;;;16.23;13.73;;;13.60;99.90;;;;;;5090477;28;20095;-76
2021/08/30 11:46:15;;;;;;;17.00;13.32;;;13.60;99.90;;;;;;5082166;28;20040;-76
2021/08/30 11:48:41;;;;;;;17.42;13.57;;;13.60;99.90;;;;;;5093876;28;20107;-77
2021/08/30 11:51:07;;;;;;;14.60;12.40;;;13.70;99.90;;;;;;5080235;28;20039;-76
2021/08/30 11:53:32;;;;;;;15.23;13.18;;;13.60;99.90;;;;;;5083265;28;20028;-76
2021/08/30 11:56:01;;;;;;;15.52;11.90;;;13.70;99.90;;;;;;5081394;28;20098;-76
2021/08/30 11:58:34;;;;;;;13.80;12.07;;;13.60;99.90;;;;;;5084068;28;20029;-76
2021/08/30 12:01:04;;;;;;;14.50;12.80;;;13.70;99.90;;;;;;5085558;28;20032;-76
2021/08/30 12:03:41;;;;;;;15.65;11.80;;;13.60;99.90;;;;;;5081603;28;20028;-76
2021/08/30 12:06:18;;;;;;;14.50;12.27;;;13.60;99.90;;;;;;5082408;28;20029;-76
2021/08/30 12:08:51;;;;;;;12.63;11.05;;;13.60;99.90;;;;;;5082273;28;20545;-77
2021/08/30 12:11:18;;;;;;;14.52;11.95;;;13.70;99.90;;;;;;5079282;28;20040;-77
2021/08/30 12:16:26;;;;;;;13.90;11.10;;;13.60;99.90;;;;;;5081292;28;20060;-76
2021/08/30 12:18:53;;;;;;;13.48;11.25;;;13.60;99.90;;;;;;5080475;28;21681;-76
2021/08/30 12:21:37;;;;;;;12.82;11.20;;;13.60;99.90;;;;;;5073928;28;20111;-76
2021/08/30 12:24:03;;;;;;;10.95;9.85;;;13.60;99.90;;;;;;5075435;28;20397;-77
2021/08/30 12:26:29;;;;;;;14.07;10.30;;;13.50;99.90;;;;;;5079748;28;20040;-77
2021/08/30 12:29:03;;;;;;;12.57;11.27;;;13.50;99.90;;;;;;5077225;28;20033;-77
2021/08/30 12:31:34;;;;;;;11.32;9.98;;;13.50;99.90;;;;;;5080934;28;20051;-77
2021/08/30 12:34:07;;;;;;;12.98;11.60;;;13.50;99.90;;;;;;5082048;28;20027;-76
2021/08/30 12:36:33;;;;;;;11.65;10.48;;;13.50;99.90;;;;;;5088516;28;20036;-76
2021/08/30 12:39:00;;;;;;;15.60;13.32;;;13.50;99.90;;;;;;5086642;28;20016;-77
2021/08/30 12:41:26;;;;;;;10.73;8.95;;;13.50;99.90;;;;;;5085958;28;20032;-77
2021/08/30 12:43:51;;;;;;;12.48;11.15;;;13.40;99.90;;;;;;5087433;28;20366;-76
2021/08/30 12:46:20;;;;;;;12.13;9.52;;;13.40;99.90;;;;;;5083526;28;20028;-76
2021/08/30 12:48:46;;;;;;;11.70;9.80;;;13.30;99.90;;;;;;5086112;28;20020;-77